Palacios, TX

1:11 PM CDT on May 28, 2015 (GMT -0500)
Palacios Municipal | | Change Station
CLOSE
Current Station
Airport
Location: Palacios,
Elevation: 16 ft
Nearby Weather Stations
Active Advisory: Flood Warning

Elev 16 ft 28.73 °N, 96.25 °W | Updated 18 minutes ago

Clear
Clear
86 °F
Feels Like 96 °F
N
14
Wind Variable Wind from SSE

Today
High -- | Low -- °F
--% Chance of Precip.
Yesterday
High -- | Low -- °F
Precip. -- in
6:28 AM 8:16 PM
Waxing Gibbous, 77% visible
Pressure 30.06 in
Visibility 10.0 miles
Clouds Clear
Heat Index 96 °F
Dew Point 76 °F
Humidity 72%
Rainfall 0.00 in
Snow Depth Not available.
UV 12 out of 12
Pollen 6.00 out of 12
Air Quality Not available.
Flu Activity Sporadic
METAR KPSX 281753Z AUTO 15012KT 10SM CLR 30/24 A3006 RMK AO2 SLP179 T03000244 10306 20256 50002

More Conditions Fewer Conditions

Pressure 30.06 in
Visibility 10.0 miles
Clouds Clear
Heat Index 96 °F
Dew Point 76 °F
Humidity 72%
Rainfall 0.00 in
Snow Depth Not available.
UV 12 out of 12
Pollen 6.00 out of 12
Air Quality Not available.
Flu Activity Sporadic
METAR KPSX 281753Z AUTO 15012KT 10SM CLR 30/24 A3006 RMK AO2 SLP179 T03000244 10306 20256 50002

More Conditions Fewer Conditions

10-Day Weather Forecast

Almanac

Astronomy

May. 28, 2015 Rise Set
Actual Time
Civil Twilight
Nautical Twilight
Astronomical Twilight
Moon
Length of Visible Light
Length of Day
Tomorrow will be .
, % of the Moon is Illuminated

Today's Extremes

State Highs State Lows

Community

WunderPhotos

Upload Photos

1,825,009 photos uploaded!

WunderBlogs® & News

Nearby

Air Quality

  Air Quality AQ Index Pollutant
Not available.

Snow Depth

Station Depth Elevation

Earthquake Activity

City Distance Mag. Time & Date
Minimum magnitude displayed is 2.5.

Coastal Water Temperatures

Place Temperature

Stations

Nearby Weather Stations

Station Location Temp. Windchill Dew Point Humidity Wind Precip. Elev Updated Type
                   
Flood Warning
Statement as of 8:33 AM CDT on May 28, 2015

... Flood Warning extended until late Sunday night... the Flood Warning continues
for
the Colorado River in Wharton
* until late Sunday night... or until the warning is canceled.
* At 0815 am Thursday the stage was 38.4 feet.
* Major flooding is forecast.
* Flood stage is 39.0 feet.
* Forecast... the river is expected to rise above flood stage this afternoon with
a continued rise to near 45.5 feet by Saturday morning.
* At 45.3 feet... many homes in the west part of Wharton have up to 2 to 3 feet
the school in southwest Wharton is isolated and flooded.


Lat... Lon 2957 9636 2930 9605 2910 9599 2910 9609 2930 9616 2957 9647

                     flood observed forecast 6 am
location stage stage day time Fri Sat sun Mon

Colorado River
Wharton 39 38.4 Thu 8 am 42.5 45.5 41.8 30.8